Time;durP1;ratioP1;P1;durP2;ratioP2;P2;SDS_P1;SDS_P2;PMS_P1;PMS_P2;Temp;Humidity;BMP_temperature;BMP_pressure;BME280_temperature;BME280_humidity;BME280_pressure;Samples;Min_cycle;Max_cycle;Signal;HPM_P1;HPM_P2
2021/09/02 00:01:52;;;;;;;13.00;8.05;;;;;;;12.18;78.93;100928.86;2121257;82;21066;-85
2021/09/02 00:04:53;;;;;;;11.08;6.60;;;;;;;12.17;78.95;100920.55;2101079;83;20993;-84
2021/09/02 00:07:55;;;;;;;11.97;7.30;;;;;;;12.18;79.00;100931.02;2106177;83;21080;-83
2021/09/02 00:10:56;;;;;;;14.33;6.87;;;;;;;12.18;79.00;100927.53;2128996;81;20972;-84
2021/09/02 00:13:57;;;;;;;10.18;6.45;;;;;;;12.14;78.93;100927.52;2141210;81;21041;-82
2021/09/02 00:16:58;;;;;;;8.90;6.20;;;;;;;12.11;78.95;100920.18;2147569;82;21462;-84
2021/09/02 00:19:59;;;;;;;15.28;7.20;;;;;;;12.08;78.85;100924.99;2124904;81;21004;-84
2021/09/02 00:23:01;;;;;;;9.85;6.28;;;;;;;12.04;78.92;100920.95;2118484;82;21061;-85
2021/09/02 00:26:02;;;;;;;14.60;6.62;;;;;;;12.02;79.06;100931.77;2111600;83;21095;-85
2021/09/02 00:29:03;;;;;;;12.18;6.62;;;;;;;11.98;79.01;100933.05;2132475;80;21054;-84
2021/09/02 00:32:05;;;;;;;13.10;7.53;;;;;;;11.94;78.99;100933.05;2152591;81;21032;-85
2021/09/02 00:35:08;;;;;;;13.10;7.60;;;;;;;11.89;79.04;100933.50;2154217;81;21442;-84
2021/09/02 00:38:10;;;;;;;12.43;7.08;;;;;;;11.87;79.22;100943.95;2148912;81;21062;-84
2021/09/02 00:41:11;;;;;;;10.65;6.28;;;;;;;11.84;79.23;100938.41;2146787;81;21513;-85
2021/09/02 00:44:12;;;;;;;10.95;7.10;;;;;;;11.80;79.05;100938.39;2141967;81;21001;-84
2021/09/02 00:47:18;;;;;;;10.43;6.10;;;;;;;11.76;79.38;100945.49;2168596;79;21545;-85
2021/09/02 00:50:19;;;;;;;11.20;6.35;;;;;;;11.73;79.51;100932.02;2175847;80;21022;-83
2021/09/02 00:53:21;;;;;;;12.05;6.95;;;;;;;11.71;79.45;100936.64;2170682;81;21061;-84
2021/09/02 00:56:26;;;;;;;12.10;6.37;;;;;;;11.66;79.50;100934.46;2173193;79;20983;-82
2021/09/02 00:59:28;;;;;;;10.35;6.00;;;;;;;11.65;79.62;100931.94;2188035;79;21075;-83
2021/09/02 01:02:30;;;;;;;10.78;5.90;;;;;;;11.61;79.51;100927.44;2181985;80;21034;-84
2021/09/02 01:05:31;;;;;;;10.15;6.22;;;;;;;11.57;79.28;100927.42;2178585;79;21061;-83
2021/09/02 01:08:35;;;;;;;10.05;5.72;;;;;;;11.52;79.18;100932.35;2188370;79;21500;-84
2021/09/02 01:11:36;;;;;;;9.03;5.58;;;;;;;11.48;79.16;100923.00;2185817;79;21631;-85
2021/09/02 01:14:37;;;;;;;12.10;6.90;;;;;;;11.43;79.01;100934.11;2177162;79;21509;-84
2021/09/02 01:17:48;;;;;;;9.90;6.40;;;;;;;11.40;79.10;100936.20;2190571;79;20987;-84
2021/09/02 01:20:49;;;;;;;7.33;5.53;;;;;;;11.32;79.08;100932.14;2185145;79;20993;-84
2021/09/02 01:23:50;;;;;;;8.38;5.75;;;;;;;11.32;79.08;100932.14;2184505;78;21078;-85
2021/09/02 01:26:51;;;;;;;9.33;5.95;;;;;;;11.28;79.17;100931.62;2183291;79;21564;-84
2021/09/02 01:29:56;;;;;;;14.20;5.70;;;;;;;11.27;79.50;100934.45;2190506;79;21614;-84
2021/09/02 01:32:58;;;;;;;8.55;6.17;;;;;;;11.12;79.82;100911.06;2184398;79;20995;-84
2021/09/02 01:35:59;;;;;;;11.68;6.78;;;;;;;11.12;79.82;100911.06;2182296;79;21030;-83
2021/09/02 01:39:00;;;;;;;12.75;6.65;;;;;;;11.15;79.49;100924.04;2190171;79;20986;-84
2021/09/02 01:42:02;;;;;;;14.25;6.90;;;;;;;11.17;80.09;100935.33;2159700;80;21074;-84
2021/09/02 01:45:05;;;;;;;11.57;7.00;;;;;;;11.17;80.09;100935.33;2171135;80;20984;-84
2021/09/02 01:48:06;;;;;;;13.78;6.30;;;;;;;11.14;79.68;100943.60;2170050;79;21042;-84
2021/09/02 01:51:07;;;;;;;10.50;6.28;;;;;;;11.14;79.68;100943.60;2142317;81;21565;-84
2021/09/02 01:54:10;;;;;;;16.42;7.22;;;;;;;11.11;79.81;100935.94;2139456;82;21530;-84
2021/09/02 01:57:16;;;;;;;10.08;5.97;;;;;;;11.11;80.01;100937.77;2139038;82;21102;-82
2021/09/02 02:00:20;;;;;;;13.30;6.42;;;;;;;11.05;79.87;100939.70;2149366;81;21015;-84
2021/09/02 02:03:21;;;;;;;10.15;6.03;;;;;;;10.88;80.22;100922.75;2138476;81;21023;-85
2021/09/02 02:06:22;;;;;;;8.55;6.62;;;;;;;10.88;80.22;100922.75;2139409;81;21027;-86
2021/09/02 02:09:23;;;;;;;12.25;6.62;;;;;;;10.97;80.00;100949.23;2132003;81;20988;-85
2021/09/02 02:12:24;;;;;;;12.53;5.70;;;;;;;10.95;80.05;100945.05;2110293;82;21640;-84
2021/09/02 02:15:26;;;;;;;11.45;6.37;;;;;;;10.91;79.85;100941.03;2125899;81;21002;-84
2021/09/02 02:18:28;;;;;;;8.58;5.97;;;;;;;10.80;79.96;100920.00;2140193;81;21026;-86
2021/09/02 02:21:29;;;;;;;8.48;6.28;;;;;;;10.88;79.87;100943.98;2136644;81;20966;-85
2021/09/02 02:24:30;;;;;;;9.33;6.35;;;;;;;10.87;79.93;100948.94;2135362;81;21023;-85
2021/09/02 02:27:32;;;;;;;11.48;6.10;;;;;;;10.84;79.83;100943.92;2122375;83;20981;-84
2021/09/02 02:30:33;;;;;;;13.80;6.33;;;;;;;10.81;79.83;100948.20;2113202;81;21039;-85
2021/09/02 02:33:34;;;;;;;13.22;6.30;;;;;;;10.77;79.81;100944.52;2141622;82;21446;-85
2021/09/02 02:36:35;;;;;;;8.75;7.10;;;;;;;10.74;79.89;100948.80;2132795;82;21054;-85
2021/09/02 02:39:38;;;;;;;13.38;7.40;;;;;;;10.73;80.19;100945.81;2133375;81;20995;-84
2021/09/02 02:42:41;;;;;;;13.20;7.40;;;;;;;10.71;80.16;100942.96;2107128;82;20998;-85
2021/09/02 02:45:42;;;;;;;12.47;6.92;;;;;;;10.66;80.00;100950.52;2120571;81;21605;-86
2021/09/02 02:48:43;;;;;;;14.20;6.15;;;;;;;10.61;79.72;100942.99;2153190;79;21003;-83
2021/09/02 02:51:45;;;;;;;11.25;6.78;;;;;;;10.59;79.74;100943.66;2149324;80;21032;-85
2021/09/02 02:54:46;;;;;;;12.47;7.25;;;;;;;10.55;79.81;100944.91;2158171;80;21465;-85
2021/09/02 02:57:47;;;;;;;10.13;6.78;;;;;;;10.54;80.11;100948.06;2166255;80;21027;-85
2021/09/02 03:00:48;;;;;;;10.68;7.12;;;;;;;10.54;80.24;100956.52;2145056;80;20981;-85
2021/09/02 03:03:49;;;;;;;10.58;6.62;;;;;;;10.49;80.28;100951.64;2165360;79;20959;-84
2021/09/02 03:06:50;;;;;;;12.00;6.92;;;;;;;10.43;80.15;100949.57;2174408;80;21054;-84
2021/09/02 03:09:51;;;;;;;11.85;7.60;;;;;;;10.40;80.24;100952.52;2153836;80;20994;-85
2021/09/02 03:12:52;;;;;;;11.80;7.92;;;;;;;10.39;80.43;100956.63;2158310;80;21004;-85
2021/09/02 03:15:53;;;;;;;11.30;7.37;;;;;;;10.36;80.36;100954.27;2142011;80;20962;-85
2021/09/02 03:18:54;;;;;;;15.08;7.70;;;;;;;10.34;80.34;100956.25;2159484;80;21528;-85
2021/09/02 03:21:55;;;;;;;11.97;7.22;;;;;;;10.31;80.48;100964.01;2142773;80;20969;-85
2021/09/02 03:24:56;;;;;;;12.47;6.92;;;;;;;10.24;80.26;100963.70;2145927;81;21581;-84
2021/09/02 03:27:58;;;;;;;9.85;7.25;;;;;;;10.21;80.39;100960.00;2145216;81;20966;-84
2021/09/02 03:30:59;;;;;;;13.68;7.80;;;;;;;10.19;80.40;100965.97;2160614;79;20979;-85
2021/09/02 03:34:01;;;;;;;10.00;7.90;;;;;;;10.12;80.69;100965.34;2144161;80;20994;-84
2021/09/02 03:37:02;;;;;;;13.03;7.85;;;;;;;10.12;81.11;100970.16;2133441;82;21562;-84
2021/09/02 03:40:05;;;;;;;13.20;7.62;;;;;;;10.12;80.98;100968.00;2138238;81;21026;-84
2021/09/02 03:43:06;;;;;;;12.03;7.97;;;;;;;10.09;81.08;100974.42;2149616;79;21324;-85
2021/09/02 03:46:07;;;;;;;13.15;7.80;;;;;;;10.08;81.14;100969.62;2156970;80;20989;-86
2021/09/02 03:49:08;;;;;;;14.05;8.63;;;;;;;10.07;81.09;100977.70;2118642;81;21050;-85
2021/09/02 03:52:09;;;;;;;16.32;8.55;;;;;;;10.07;81.19;100977.70;2146005;81;21438;-85
2021/09/02 03:55:12;;;;;;;16.82;8.58;;;;;;;10.06;81.07;100979.52;2133285;81;21010;-86
2021/09/02 03:58:13;;;;;;;14.23;9.05;;;;;;;10.06;81.22;100980.02;2146677;81;21011;-85
2021/09/02 04:01:14;;;;;;;11.43;7.78;;;;;;;10.06;81.34;100983.99;2146677;81;21047;-86
2021/09/02 04:04:15;;;;;;;14.20;7.62;;;;;;;10.09;81.37;100987.68;2117901;81;20980;-85
2021/09/02 04:07:16;;;;;;;13.22;8.60;;;;;;;10.08;81.17;100983.37;2142666;81;21016;-84
2021/09/02 04:10:17;;;;;;;13.22;8.00;;;;;;;10.07;81.03;100987.81;2151647;81;21364;-86
2021/09/02 04:13:18;;;;;;;12.20;7.55;;;;;;;10.06;81.31;100982.67;2140208;81;20995;-84
2021/09/02 04:16:19;;;;;;;13.03;8.15;;;;;;;10.07;81.25;100994.44;2155873;81;21515;-85
2021/09/02 04:19:20;;;;;;;11.30;8.00;;;;;;;10.09;81.34;100994.31;2142266;81;20988;-86
2021/09/02 04:22:21;;;;;;;11.08;7.87;;;;;;;10.11;81.38;100997.67;2146184;81;21067;-85
2021/09/02 04:25:23;;;;;;;12.20;7.80;;;;;;;10.15;81.50;101004.34;2150543;81;20935;-86
2021/09/02 04:28:24;;;;;;;14.18;7.83;;;;;;;10.29;81.66;100997.30;2151047;81;20989;-87
2021/09/02 04:31:25;;;;;;;13.22;7.75;;;;;;;10.53;81.82;101002.59;2101755;82;21101;-85
2021/09/02 04:34:26;;;;;;;10.58;7.17;;;;;;;10.70;81.43;101007.16;2098312;81;21006;-85
2021/09/02 04:37:28;;;;;;;14.78;7.62;;;;;;;10.81;81.13;101002.63;2132673;81;21443;-86
2021/09/02 04:40:29;;;;;;;12.20;8.45;;;;;;;10.84;80.91;101004.98;2098395;83;21025;-85
2021/09/02 04:43:30;;;;;;;14.20;9.15;;;;;;;10.67;80.99;100980.05;2101280;83;20958;-86
2021/09/02 04:46:31;;;;;;;14.20;7.47;;;;;;;10.89;81.02;101004.06;2098702;83;21050;-86
2021/09/02 04:49:32;;;;;;;9.25;7.53;;;;;;;11.15;81.32;101018.80;2127029;82;21491;-86
2021/09/02 04:52:33;;;;;;;14.45;8.45;;;;;;;11.15;81.32;101018.80;2129585;82;21005;-86
2021/09/02 04:55:35;;;;;;;12.98;8.58;;;;;;;11.51;81.43;101016.20;2130036;81;21034;-86
2021/09/02 04:58:36;;;;;;;10.75;8.20;;;;;;;11.94;81.47;101015.48;2143727;80;21025;-86
2021/09/02 05:01:38;;;;;;;11.90;7.58;;;;;;;12.39;81.36;101021.14;2186368;79;20967;-86
2021/09/02 05:04:39;;;;;;;12.88;7.33;;;;;;;12.84;80.86;101016.06;2187062;79;20991;-86
2021/09/02 05:07:40;;;;;;;9.28;7.25;;;;;;;13.27;80.20;101021.41;2134275;81;21458;-86
2021/09/02 05:10:41;;;;;;;9.73;6.97;;;;;;;13.68;79.77;101020.50;2145503;81;21008;-86
2021/09/02 05:13:43;;;;;;;9.78;7.42;;;;;;;14.23;79.55;101022.16;2149654;81;21054;-86
2021/09/02 05:16:44;;;;;;;12.70;7.60;;;;;;;14.82;79.18;101020.55;2135290;80;21032;-85
2021/09/02 05:19:45;;;;;;;11.25;7.37;;;;;;;15.39;78.58;101014.41;2165684;79;21010;-86
2021/09/02 05:22:46;;;;;;;9.33;6.85;;;;;;;16.04;78.23;101009.11;2145212;80;21042;-86
2021/09/02 05:25:47;;;;;;;8.00;6.97;;;;;;;16.64;77.35;101005.17;2164248;80;21550;-86
2021/09/02 05:28:48;;;;;;;11.22;6.28;;;;;;;16.87;75.87;101011.31;2163307;80;20996;-86
2021/09/02 05:31:49;;;;;;;10.25;7.30;;;;;;;17.19;75.24;101013.24;2158144;79;21654;-85
2021/09/02 05:34:51;;;;;;;8.43;7.10;;;;;;;17.44;74.84;101021.27;2151104;80;20983;-86
2021/09/02 05:37:52;;;;;;;9.00;6.87;;;;;;;17.77;74.29;101018.62;2133983;82;21015;-87
2021/09/02 05:40:53;;;;;;;9.65;7.17;;;;;;;18.10;73.44;101021.59;2150449;80;21007;-85
2021/09/02 05:43:54;;;;;;;10.20;6.80;;;;;;;18.46;73.22;101024.66;2164636;79;21014;-86
2021/09/02 05:46:55;;;;;;;9.63;6.65;;;;;;;18.69;72.31;101024.39;2152276;80;21067;-87
2021/09/02 05:49:56;;;;;;;10.98;7.40;;;;;;;18.95;71.95;101026.41;2152739;81;21016;-86
2021/09/02 05:52:57;;;;;;;10.70;6.58;;;;;;;19.14;70.88;101032.91;2139859;80;20990;-88
2021/09/02 05:55:59;;;;;;;9.98;7.17;;;;;;;19.14;70.12;101035.08;2162448;80;21351;-88
2021/09/02 05:59:00;;;;;;;9.40;6.72;;;;;;;19.19;70.32;101038.52;2156586;80;20980;-89
2021/09/02 06:02:01;;;;;;;8.98;6.95;;;;;;;19.38;69.48;101045.84;2146214;79;21105;-88
2021/09/02 06:05:02;;;;;;;11.50;7.28;;;;;;;19.50;68.75;101051.46;2159862;79;20965;-89
2021/09/02 06:08:04;;;;;;;7.83;6.72;;;;;;;19.57;68.68;101055.50;2186821;78;21449;-89
2021/09/02 06:11:05;;;;;;;10.08;6.85;;;;;;;19.73;68.12;101050.30;2138661;80;21008;-89
2021/09/02 06:14:06;;;;;;;8.80;6.47;;;;;;;19.93;67.65;101060.58;2157172;80;21002;-87
2021/09/02 06:17:07;;;;;;;10.95;7.12;;;;;;;20.07;67.16;101064.11;2135684;80;20968;-88
2021/09/02 06:20:10;;;;;;;11.28;6.95;;;;;;;20.08;66.99;101055.84;2130964;81;21102;-88
2021/09/02 06:23:11;;;;;;;8.80;7.00;;;;;;;20.36;66.85;101060.20;2158967;80;20974;-89
2021/09/02 06:26:12;;;;;;;13.65;7.10;;;;;;;20.58;65.98;101056.27;2143989;81;20977;-89
2021/09/02 06:29:13;;;;;;;10.50;6.80;;;;;;;20.60;65.18;101058.73;2153349;81;21553;-88
2021/09/02 06:32:14;;;;;;;10.90;7.10;;;;;;;20.27;65.18;101058.73;2148049;80;21004;-89
2021/09/02 06:35:15;;;;;;;8.58;6.50;;;;;;;20.10;65.39;101055.62;2146925;80;21540;-87
2021/09/02 06:38:17;;;;;;;10.68;7.47;;;;;;;20.23;65.23;101050.77;2175281;80;20960;-88
2021/09/02 06:41:17;;;;;;;11.68;6.70;;;;;;;20.43;64.83;101056.14;2161907;80;21018;-88
2021/09/02 06:44:20;;;;;;;8.63;6.65;;;;;;;20.40;64.72;101061.95;2162848;80;21372;-88
2021/09/02 06:47:21;;;;;;;9.78;6.70;;;;;;;20.72;64.95;101066.51;2155868;80;20987;-89
2021/09/02 06:50:22;;;;;;;10.88;7.35;;;;;;;21.13;64.41;101063.16;2159635;80;21068;-89
2021/09/02 06:53:23;;;;;;;13.28;6.58;;;;;;;21.33;63.83;101062.55;2166675;80;21025;-89
2021/09/02 06:56:25;;;;;;;9.88;6.90;;;;;;;21.58;63.96;101067.24;2185510;79;20995;-88
2021/09/02 06:59:26;;;;;;;9.63;7.05;;;;;;;21.83;63.08;101057.84;2172836;79;21002;-89
2021/09/02 07:02:27;;;;;;;18.85;7.53;;;;;;;22.20;62.28;101072.34;2163141;79;20976;-89
2021/09/02 07:05:28;;;;;;;136.75;19.73;;;;;;;22.20;62.28;101072.34;2181218;79;21011;-88
2021/09/02 07:08:29;;;;;;;24.18;6.67;;;;;;;22.23;62.07;101071.91;2186908;79;20988;-89
2021/09/02 07:11:30;;;;;;;7.80;5.87;;;;;;;22.62;61.77;101076.66;2169672;78;20973;-88
2021/09/02 07:14:31;;;;;;;13.08;6.80;;;;;;;22.95;61.20;101070.94;2188707;80;21485;-89
2021/09/02 07:17:33;;;;;;;10.90;5.85;;;;;;;23.16;60.69;101075.05;2176863;80;20952;-89
2021/09/02 07:20:34;;;;;;;13.95;5.58;;;;;;;23.44;60.24;101075.02;2180766;80;21067;-90
2021/09/02 07:23:35;;;;;;;10.60;6.78;;;;;;;23.72;59.96;101079.87;2164178;80;20989;-88
2021/09/02 07:26:37;;;;;;;11.50;6.28;;;;;;;23.87;59.28;101088.92;2169165;79;21551;-89
2021/09/02 07:29:38;;;;;;;7.75;5.83;;;;;;;23.95;58.86;101085.88;2175147;80;21021;-89
2021/09/02 07:32:39;;;;;;;6.80;5.60;;;;;;;24.19;58.56;101081.84;2182648;79;21353;-88
2021/09/02 07:35:41;;;;;;;8.55;5.85;;;;;;;24.01;58.10;101079.52;2181322;80;20967;-89
2021/09/02 07:38:42;;;;;;;7.20;5.45;;;;;;;24.25;57.87;101081.76;2179691;80;21031;-90
2021/09/02 07:41:43;;;;;;;9.15;6.05;;;;;;;24.37;56.76;101085.30;2171181;80;21070;-90
2021/09/02 07:44:49;;;;;;;9.05;6.45;;;;;;;24.49;57.00;101085.33;2178377;79;20985;-89
2021/09/02 07:47:50;;;;;;;7.12;5.42;;;;;;;24.48;56.44;101080.98;2177724;79;21009;-91
2021/09/02 07:50:51;;;;;;;9.35;5.62;;;;;;;24.47;56.16;101086.11;2151850;80;21513;-89
2021/09/02 07:53:52;;;;;;;7.37;5.20;;;;;;;24.49;56.03;101097.53;2160288;80;21002;-91
2021/09/02 07:56:53;;;;;;;5.75;5.15;;;;;;;24.57;55.54;101090.94;2150736;81;21536;-89
2021/09/02 07:59:55;;;;;;;6.40;4.20;;;;;;;24.87;54.96;101094.06;2147586;80;21521;-90
2021/09/02 08:02:56;;;;;;;4.92;4.22;;;;;;;24.85;54.94;101088.86;2145938;81;20977;-90
2021/09/02 08:05:57;;;;;;;5.78;4.72;;;;;;;25.09;54.81;101086.09;2156683;81;21087;-91
2021/09/02 08:08:58;;;;;;;7.67;4.55;;;;;;;25.21;54.21;101091.01;2156169;81;21077;-90
2021/09/02 08:11:59;;;;;;;5.08;4.08;;;;;;;25.07;53.53;101083.63;2147506;80;21025;-90
2021/09/02 08:15:00;;;;;;;4.83;4.05;;;;;;;24.94;53.57;101086.59;2110218;82;20987;-91
2021/09/02 08:18:03;;;;;;;6.08;3.75;;;;;;;24.80;51.91;101084.67;2148278;80;21031;-89
2021/09/02 08:21:04;;;;;;;10.35;4.58;;;;;;;24.36;52.32;101090.97;2139866;80;20985;-90
2021/09/02 08:24:07;;;;;;;7.37;4.30;;;;;;;24.50;52.56;101086.17;2150125;81;21002;-90
2021/09/02 08:27:08;;;;;;;6.33;4.10;;;;;;;24.54;52.83;101090.87;2152855;80;21036;-90
2021/09/02 08:30:11;;;;;;;5.03;3.92;;;;;;;24.63;52.30;101089.17;2141646;81;21041;-89
2021/09/02 08:33:12;;;;;;;13.13;4.67;;;;;;;24.54;51.67;101091.41;2114779;82;20990;-90
2021/09/02 08:36:14;;;;;;;4.85;4.00;;;;;;;24.70;52.10;101091.24;2121155;82;20998;-90
2021/09/02 08:39:15;;;;;;;6.05;3.70;;;;;;;24.60;50.96;101090.46;2141829;81;21000;-91
2021/09/02 08:42:16;;;;;;;5.08;3.27;;;;;;;24.41;50.67;101098.38;2149524;81;20987;-90
2021/09/02 08:45:17;;;;;;;5.67;3.65;;;;;;;24.35;50.04;101095.55;2155891;80;21024;-89
2021/09/02 08:48:20;;;;;;;5.25;3.33;;;;;;;24.38;50.72;101098.32;2143243;81;21024;-92
2021/09/02 08:51:21;;;;;;;17.95;4.72;;;;;;;24.43;50.46;101094.91;2180561;78;21110;-91
2021/09/02 08:54:22;;;;;;;20.48;4.95;;;;;;;24.58;50.46;101093.43;2186403;79;21001;-90
2021/09/02 08:57:23;;;;;;;8.03;3.83;;;;;;;24.76;50.31;101094.36;2190381;80;21022;-91
2021/09/02 09:00:26;;;;;;;4.40;3.30;;;;;;;24.46;49.77;101090.41;2193640;79;20985;-91
2021/09/02 09:03:29;;;;;;;5.25;3.47;;;;;;;24.44;48.68;101088.45;2186603;79;21144;-90
2021/09/02 09:06:31;;;;;;;4.50;3.50;;;;;;;24.36;47.49;101088.26;2188102;80;21049;-89
2021/09/02 09:09:32;;;;;;;7.72;3.47;;;;;;;24.22;48.54;101086.83;2174967;78;21460;-91
2021/09/02 09:12:42;;;;;;;4.97;4.00;;;;;;;24.35;48.01;101086.05;2180524;79;21003;-91
2021/09/02 09:15:47;;;;;;;4.28;3.58;;;;;;;24.16;47.28;101085.88;2186008;79;20983;-90
2021/09/02 09:18:48;;;;;;;5.62;3.75;;;;;;;24.28;48.00;101089.42;2187707;79;20983;-90
2021/09/02 09:21:58;;;;;;;3.87;3.47;;;;;;;24.44;48.18;101082.52;2176834;79;21024;-90
2021/09/02 09:25:10;;;;;;;4.97;3.70;;;;;;;24.42;47.21;101090.03;2174968;79;21049;-91
2021/09/02 09:28:11;;;;;;;5.80;3.70;;;;;;;24.32;47.54;101084.34;2195489;79;21032;-91
2021/09/02 09:31:32;;;;;;;5.33;3.60;;;;;;;24.33;45.11;101088.73;2187397;79;20956;-89
2021/09/02 09:34:33;;;;;;;4.80;3.98;;;;;;;24.35;46.51;101085.23;2177969;80;20983;-90
2021/09/02 09:37:35;;;;;;;5.67;3.80;;;;;;;24.42;46.85;101087.31;2184599;79;21002;-91
2021/09/02 09:40:45;;;;;;;4.97;3.62;;;;;;;24.31;46.92;101086.77;2180443;79;20991;-90
2021/09/02 09:43:46;;;;;;;4.47;3.80;;;;;;;24.49;46.73;101088.58;2190785;80;21004;-91
2021/09/02 09:47:12;;;;;;;5.28;3.40;;;;;;;24.75;46.57;101085.91;2187547;79;20998;-91
2021/09/02 09:50:16;;;;;;;8.90;8.00;;;;;;;24.68;44.51;101090.64;2161507;80;21137;-92
2021/09/02 09:53:26;;;;;;;7.50;5.62;;;;;;;24.33;44.61;101088.73;2133467;80;20988;-91
2021/09/02 09:56:27;;;;;;;3.80;3.35;;;;;;;24.46;46.04;101084.44;2174916;80;20980;-90
2021/09/02 09:59:28;;;;;;;5.15;4.08;;;;;;;24.77;45.55;101081.89;2162696;80;21028;-91
2021/09/02 10:02:30;;;;;;;4.20;3.80;;;;;;;25.19;45.59;101083.09;2151678;80;21024;-91
2021/09/02 10:05:31;;;;;;;4.78;4.10;;;;;;;25.40;45.18;101082.98;2146178;80;21015;-90
2021/09/02 10:08:37;;;;;;;6.55;4.80;;;;;;;25.50;45.27;101076.91;2171493;80;21074;-91
2021/09/02 10:11:39;;;;;;;6.15;4.47;;;;;;;25.63;44.81;101077.16;2153040;80;21058;-91
2021/09/02 10:14:41;;;;;;;4.87;4.28;;;;;;;25.52;43.88;101073.96;2154625;81;21051;-90
2021/09/02 10:17:43;;;;;;;4.97;4.40;;;;;;;25.40;43.32;101077.55;2154210;81;21513;-91
2021/09/02 10:20:45;;;;;;;92.00;11.83;;;;;;;25.32;43.49;101077.92;2177222;79;20997;-90
2021/09/02 10:23:47;;;;;;;5.05;4.55;;;;;;;25.24;43.85;101080.48;2157991;80;21001;-91
2021/09/02 10:26:48;;;;;;;6.97;5.25;;;;;;;25.10;42.76;101089.12;2169908;80;21511;-92
2021/09/02 10:29:53;;;;;;;8.65;4.80;;;;;;;25.14;42.84;101080.77;2158440;80;21059;-92
2021/09/02 10:32:58;;;;;;;5.12;4.58;;;;;;;25.32;42.37;101076.57;2160716;80;21012;-90
2021/09/02 10:36:00;;;;;;;5.47;4.90;;;;;;;25.24;43.11;101086.45;2172648;79;21509;-91
2021/09/02 10:39:02;;;;;;;9.50;4.58;;;;;;;25.35;42.55;101077.44;2149930;80;21556;-90
2021/09/02 10:42:03;;;;;;;5.58;5.00;;;;;;;25.30;41.18;101080.59;2156135;80;20981;-92
2021/09/02 10:45:05;;;;;;;9.13;5.00;;;;;;;24.92;41.78;101088.21;2152851;80;21039;-90
2021/09/02 10:48:08;;;;;;;6.78;4.85;;;;;;;24.94;42.51;101080.63;2149009;80;21609;-90
2021/09/02 10:51:32;;;;;;;6.58;4.80;;;;;;;25.09;40.52;101081.52;2153522;80;21042;-90
2021/09/02 10:54:36;;;;;;;9.00;5.35;;;;;;;24.98;42.64;101086.43;2135346;81;21117;-92
2021/09/02 10:57:37;;;;;;;5.28;4.42;;;;;;;25.17;43.22;101092.54;2142489;81;20991;-91
2021/09/02 11:00:42;;;;;;;6.20;4.65;;;;;;;25.18;42.64;101088.78;2142898;81;21021;-90
2021/09/02 11:03:42;;;;;;;8.30;4.75;;;;;;;25.15;42.91;101088.72;2131867;81;21516;-91
2021/09/02 11:06:48;;;;;;;5.92;5.15;;;;;;;24.93;42.37;101089.03;2146324;81;21090;-91
2021/09/02 11:09:49;;;;;;;5.75;4.90;;;;;;;25.02;42.63;101085.70;2137071;80;21035;-90
2021/09/02 11:13:06;;;;;;;5.30;4.80;;;;;;;25.11;42.27;101084.79;2159015;80;20986;-90
2021/09/02 11:16:09;;;;;;;4.72;4.15;;;;;;;25.14;40.91;101082.13;2160583;79;21041;-91
2021/09/02 11:19:10;;;;;;;6.42;4.60;;;;;;;25.08;42.20;101083.09;2177732;80;20999;-90
2021/09/02 11:22:18;;;;;;;6.05;4.72;;;;;;;24.97;42.80;101086.94;2158736;80;21026;-90
2021/09/02 11:25:19;;;;;;;5.72;4.67;;;;;;;25.08;43.46;101085.81;2166959;80;21024;-90
2021/09/02 11:28:22;;;;;;;7.55;6.80;;;;;;;25.27;42.75;101088.69;2156143;80;21024;-90
2021/09/02 11:31:23;;;;;;;7.58;6.22;;;;;;;25.34;43.16;101076.31;2141368;81;21016;-91
2021/09/02 11:34:24;;;;;;;5.60;4.67;;;;;;;25.49;42.66;101075.27;2148231;79;20970;-91
2021/09/02 11:37:41;;;;;;;7.42;4.50;;;;;;;25.44;42.24;101080.05;2157142;80;21054;-90
2021/09/02 11:40:43;;;;;;;6.97;4.80;;;;;;;25.36;40.87;101076.91;2172596;79;21031;-92
2021/09/02 11:43:45;;;;;;;5.33;4.53;;;;;;;25.04;42.38;101083.58;2174631;79;21069;-92
2021/09/02 11:46:46;;;;;;;6.35;5.20;;;;;;;25.11;42.46;101083.97;2181727;79;20992;-91
2021/09/02 11:49:53;;;;;;;6.20;5.55;;;;;;;24.85;42.23;101084.78;2148233;79;21020;-91
2021/09/02 11:52:54;;;;;;;6.87;4.78;;;;;;;25.01;42.91;101090.84;2144969;80;21067;-90
2021/09/02 11:55:58;;;;;;;5.22;4.72;;;;;;;25.07;42.61;101086.89;2141251;81;20995;-91
2021/09/02 11:59:01;;;;;;;6.87;5.28;;;;;;;25.09;41.64;101087.45;2135025;81;21038;-91
2021/09/02 12:02:05;;;;;;;7.22;5.30;;;;;;;25.05;41.76;101077.61;2159320;79;21003;-91
2021/09/02 12:05:08;;;;;;;5.35;4.85;;;;;;;24.65;41.86;101076.20;2181524;80;21103;-91
2021/09/02 12:08:11;;;;;;;6.80;4.67;;;;;;;24.37;42.32;101071.73;2184318;79;21030;-91
2021/09/02 12:11:14;;;;;;;6.35;5.33;;;;;;;24.32;42.56;101076.21;2144197;79;21010;-91
2021/09/02 12:14:22;;;;;;;5.42;4.62;;;;;;;24.25;42.69;101072.80;2165478;80;21051;-91
2021/09/02 12:17:36;;;;;;;6.03;4.70;;;;;;;24.37;42.39;101073.63;2148702;80;21065;-92
2021/09/02 12:20:40;;;;;;;5.45;4.87;;;;;;;24.37;42.32;101067.67;2160370;80;21183;-91
2021/09/02 12:23:54;;;;;;;5.72;5.03;;;;;;;24.35;42.31;101068.95;2147597;80;21534;-91
2021/09/02 12:26:58;;;;;;;5.03;4.53;;;;;;;24.47;42.92;101064.92;2119370;82;21031;-92
2021/09/02 12:29:58;;;;;;;6.78;4.40;;;;;;;24.63;42.96;101067.46;2163686;80;21040;-91
2021/09/02 12:33:15;;;;;;;5.60;4.75;;;;;;;24.56;42.85;101058.92;2158516;80;21023;-93
2021/09/02 12:36:18;;;;;;;7.55;4.67;;;;;;;24.45;42.94;101054.86;2164347;80;21026;-92
2021/09/02 12:39:25;;;;;;;7.62;5.08;;;;;;;24.39;43.19;101050.63;2158030;79;21540;-91
2021/09/02 12:42:29;;;;;;;6.50;5.83;;;;;;;24.15;41.75;101059.27;2142668;79;21142;-92
2021/09/02 12:45:31;;;;;;;13.85;12.40;;;;;;;23.88;42.49;101058.89;2141779;81;21562;-91
2021/09/02 12:48:32;;;;;;;6.12;5.12;;;;;;;23.82;43.16;101049.48;2147549;79;21039;-92
2021/09/02 12:51:33;;;;;;;5.40;4.58;;;;;;;23.70;42.90;101047.57;2163091;80;21080;-91
2021/09/02 12:55:09;;;;;;;6.83;5.00;;;;;;;23.77;43.71;101050.73;2148079;81;21095;-91
2021/09/02 12:58:10;;;;;;;7.00;5.20;;;;;;;23.82;43.76;101049.48;2149799;80;21490;-91
2021/09/02 13:01:11;;;;;;;6.12;5.40;;;;;;;23.94;43.51;101048.47;2146438;81;21095;-91
2021/09/02 13:04:12;;;;;;;7.22;5.37;;;;;;;24.03;44.06;101042.17;2153338;80;21046;-92
2021/09/02 13:07:13;;;;;;;6.12;5.47;;;;;;;23.88;43.87;101045.88;2174238;80;21863;-91
2021/09/02 13:10:17;;;;;;;6.28;5.30;;;;;;;23.86;44.05;101041.20;2175512;79;20979;-92
2021/09/02 13:13:18;;;;;;;7.55;5.85;;;;;;;23.83;44.16;101046.56;2155941;80;21064;-91
2021/09/02 13:16:20;;;;;;;9.30;7.75;;;;;;;23.68;43.35;101044.26;2162463;80;20950;-91
2021/09/02 13:19:21;;;;;;;7.95;5.60;;;;;;;23.22;43.70;101042.17;2150191;81;21012;-91
2021/09/02 13:22:22;;;;;;;9.93;5.50;;;;;;;23.14;44.06;101035.72;2170945;79;21078;-89
2021/09/02 13:25:24;;;;;;;6.10;4.85;;;;;;;23.05;43.75;101044.68;2148981;80;21478;-91
2021/09/02 13:28:25;;;;;;;50.63;8.00;;;;;;;22.94;44.07;101040.81;2152598;80;21523;-92
2021/09/02 13:31:26;;;;;;;9.60;6.08;;;;;;;22.92;44.25;101035.33;2155469;80;20988;-91
2021/09/02 13:34:27;;;;;;;10.43;5.75;;;;;;;23.00;44.25;101033.70;2150706;80;21103;-90
2021/09/02 13:37:30;;;;;;;7.12;5.25;;;;;;;23.06;43.77;101023.34;2144989;80;21380;-92
2021/09/02 13:40:31;;;;;;;6.55;5.50;;;;;;;23.04;44.24;101024.09;2162393;81;21089;-90
2021/09/02 13:43:33;;;;;;;6.08;5.08;;;;;;;23.11;44.32;101026.17;2153692;80;21012;-91
2021/09/02 13:46:35;;;;;;;5.30;4.80;;;;;;;23.06;44.51;101026.05;2155229;81;21040;-92
2021/09/02 13:49:36;;;;;;;7.25;4.70;;;;;;;23.14;44.16;101023.00;2150710;81;21109;-91
2021/09/02 13:52:37;;;;;;;6.85;4.70;;;;;;;23.25;44.28;101023.59;2153917;81;20976;-93
2021/09/02 13:55:39;;;;;;;7.00;5.03;;;;;;;23.18;42.07;101013.92;2139646;81;21031;-91
2021/09/02 13:58:40;;;;;;;6.80;6.08;;;;;;;23.17;43.85;101020.37;2142172;81;21425;-90
2021/09/02 14:01:41;;;;;;;8.10;5.08;;;;;;;23.21;43.53;101018.34;2154621;80;21073;-91
2021/09/02 14:04:43;;;;;;;8.70;6.35;;;;;;;23.06;43.79;101012.52;2144310;81;21003;-91